createdAt,value
2018-01-15T00:00:26.701Z,1.25
2018-01-15T00:01:27.637Z,1.27
2018-01-15T00:02:27.250Z,1.28
2018-01-15T00:03:27.403Z,1.29
2018-01-15T00:04:28.504Z,1.31
2018-01-15T00:05:27.139Z,1.33
2018-01-15T00:06:27.943Z,1.3
2018-01-15T00:07:26.804Z,1.32
2018-01-15T00:08:27.544Z,1.33
2018-01-15T00:09:26.887Z,1.34
2018-01-15T00:10:27.352Z,1.3
2018-01-15T00:11:26.872Z,1.31
2018-01-15T00:12:27.148Z,1.31
2018-01-15T00:13:28.342Z,1.32
2018-01-15T00:14:26.560Z,1.33
2018-01-15T00:15:26.225Z,1.34
2018-01-15T00:16:27.879Z,1.34
2018-01-15T00:17:26.763Z,1.33
2018-01-15T00:18:26.439Z,1.26
2018-01-15T00:19:27.068Z,1.26
2018-01-15T00:20:26.444Z,1.25
2018-01-15T00:21:26.374Z,1.26
2018-01-15T00:22:26.507Z,1.24
2018-01-15T00:23:26.477Z,1.23
2018-01-15T00:24:27.312Z,1.2
2018-01-15T00:25:26.746Z,1.24
2018-01-15T00:26:26.525Z,1.21
2018-01-15T00:27:26.502Z,1.2
2018-01-15T00:28:26.346Z,1.22
2018-01-15T00:29:26.501Z,1.26
2018-01-15T00:30:26.802Z,1.26
2018-01-15T00:31:26.701Z,1.27
2018-01-15T00:32:26.514Z,1.3
2018-01-15T00:33:26.624Z,1.29
2018-01-15T00:34:26.545Z,1.32
2018-01-15T00:35:26.526Z,1.32
2018-01-15T00:36:26.549Z,1.35
2018-01-15T00:37:26.556Z,1.33
2018-01-15T00:38:26.911Z,1.33
2018-01-15T00:39:26.665Z,1.3
2018-01-15T00:40:26.468Z,1.3
2018-01-15T00:41:26.472Z,1.29
2018-01-15T00:42:26.586Z,1.31
2018-01-15T00:43:26.766Z,1.28
2018-01-15T00:44:26.840Z,1.3
2018-01-15T00:45:26.228Z,1.27
2018-01-15T00:46:26.572Z,1.3
2018-01-15T00:47:26.691Z,1.28
2018-01-15T00:48:26.453Z,1.3
2018-01-15T00:49:26.603Z,1.32
2018-01-15T00:50:26.678Z,1.31
2018-01-15T00:51:26.583Z,1.32
2018-01-15T00:52:26.574Z,1.3
2018-01-15T00:53:26.656Z,1.29
2018-01-15T00:54:26.856Z,1.31
2018-01-15T00:55:26.824Z,1.3
2018-01-15T00:56:26.696Z,1.27
2018-01-15T00:57:25.902Z,1.28
2018-01-15T00:58:26.476Z,1.26
2018-01-15T00:59:26.549Z,1.23
2018-01-15T01:00:27.665Z,1.25
2018-01-15T01:01:26.637Z,1.23
2018-01-15T01:02:26.619Z,1.23
2018-01-15T01:03:26.418Z,1.23
2018-01-15T01:04:26.518Z,1.23
2018-01-15T01:05:26.582Z,1.22
2018-01-15T01:06:26.439Z,1.25
2018-01-15T01:07:26.231Z,1.25
2018-01-15T01:08:26.363Z,1.23
2018-01-15T01:09:26.816Z,1.24
2018-01-15T01:10:26.655Z,1.25
2018-01-15T01:11:26.460Z,1.25
2018-01-15T01:12:26.136Z,1.27
2018-01-15T01:13:26.435Z,1.28
2018-01-15T01:14:26.608Z,1.31
2018-01-15T01:15:26.542Z,1.26
2018-01-15T01:16:26.676Z,1.3
2018-01-15T01:17:26.478Z,1.32
2018-01-15T01:18:26.590Z,1.3
2018-01-15T01:19:26.312Z,1.3
2018-01-15T01:20:26.161Z,1.26
2018-01-15T01:21:26.599Z,1.22
2018-01-15T01:22:26.320Z,1.2
2018-01-15T01:23:26.552Z,1.22
2018-01-15T01:24:26.262Z,1.21
2018-01-15T01:25:26.624Z,1.2
2018-01-15T01:26:26.296Z,1.2
2018-01-15T01:27:26.496Z,1.2
2018-01-15T01:28:26.883Z,1.24
2018-01-15T01:29:26.635Z,1.19
2018-01-15T01:30:26.518Z,1.22
2018-01-15T01:31:26.201Z,1.22
2018-01-15T01:32:26.384Z,1.2
2018-01-15T01:33:26.573Z,1.22
2018-01-15T01:34:26.904Z,1.23
2018-01-15T01:35:26.421Z,1.22
2018-01-15T01:36:26.625Z,1.15
2018-01-15T01:38:53.998Z,1.2
2018-01-15T01:39:26.104Z,1.2
2018-01-15T01:40:27.067Z,1.18
2018-01-15T01:41:26.632Z,1.18
2018-01-15T01:42:25.485Z,1.18
2018-01-15T01:43:25.712Z,1.17
2018-01-15T01:44:25.745Z,1.16
2018-01-15T01:45:25.670Z,1.16
2018-01-15T01:46:25.599Z,1.15
2018-01-15T01:47:25.786Z,1.18
2018-01-15T01:48:25.656Z,1.15
2018-01-15T01:49:25.808Z,1.17
2018-01-15T01:50:25.713Z,1.19
2018-01-15T01:51:25.707Z,1.18
2018-01-15T01:52:25.717Z,1.18
2018-01-15T01:53:25.598Z,1.14
2018-01-15T01:54:25.696Z,1.18
2018-01-15T01:55:25.721Z,1.19
2018-01-15T01:56:25.609Z,1.19
2018-01-15T01:57:25.592Z,1.18
2018-01-15T01:58:25.493Z,1.19
2018-01-15T01:59:25.684Z,1.19
2018-01-15T02:00:25.708Z,1.2
2018-01-15T02:01:25.676Z,1.19
2018-01-15T02:02:25.692Z,1.17
2018-01-15T02:03:25.512Z,1.17
2018-01-15T02:04:25.741Z,1.18
2018-01-15T02:05:25.557Z,1.15
2018-01-15T02:06:25.384Z,1.2
2018-01-15T02:07:25.433Z,1.17
2018-01-15T02:08:25.632Z,1.18
2018-01-15T02:09:25.525Z,1.18
2018-01-15T02:10:25.430Z,1.18
2018-01-15T02:11:25.653Z,1.19
2018-01-15T02:12:25.670Z,1.17
2018-01-15T02:13:25.584Z,1.17
2018-01-15T02:14:26.012Z,1.14
2018-01-15T02:15:25.750Z,1.15
2018-01-15T02:16:25.770Z,1.16
2018-01-15T02:17:25.795Z,1.18
2018-01-15T02:18:25.850Z,1.16
2018-01-15T02:19:25.784Z,1.15
2018-01-15T02:20:25.615Z,1.14
2018-01-15T02:21:25.549Z,1.12
2018-01-15T02:22:25.881Z,1.11
2018-01-15T02:23:25.802Z,1.13
2018-01-15T02:24:25.661Z,1.13
2018-01-15T02:25:25.621Z,1.11
2018-01-15T02:26:25.983Z,1.05
2018-01-15T02:27:25.508Z,1.02
2018-01-15T02:28:25.690Z,1.02
2018-01-15T02:29:25.739Z,1.05
2018-01-15T02:30:25.635Z,1.03
2018-01-15T02:31:25.817Z,1.02
2018-01-15T02:32:25.856Z,1.04
2018-01-15T02:33:25.895Z,1.06
2018-01-15T02:34:25.873Z,1.07
2018-01-15T02:35:25.561Z,1.07
2018-01-15T02:36:25.641Z,1.06
2018-01-15T02:37:25.689Z,1.07
2018-01-15T02:38:25.549Z,1.07
2018-01-15T02:39:25.855Z,1.09
2018-01-15T02:40:25.649Z,1.07
2018-01-15T02:41:25.601Z,1.07
2018-01-15T02:42:25.648Z,1.07
2018-01-15T02:43:25.712Z,1.02
2018-01-15T02:44:25.707Z,1.04
2018-01-15T02:45:25.689Z,1.03
2018-01-15T02:46:25.861Z,1.05
2018-01-15T02:47:25.647Z,1.03
2018-01-15T02:48:25.864Z,1.04
2018-01-15T02:49:26.168Z,1.04
2018-01-15T02:50:25.638Z,1.05
2018-01-15T02:51:25.786Z,1.06
2018-01-15T02:52:25.835Z,1.06
2018-01-15T02:53:25.736Z,1.07
2018-01-15T02:55:25.843Z,1.05
2018-01-15T02:56:25.765Z,1.03
2018-01-15T02:57:25.875Z,1.06
2018-01-15T02:58:25.827Z,1.04
2018-01-15T02:59:26.856Z,1.06
2018-01-15T03:00:26.688Z,1.06
2018-01-15T03:01:26.821Z,1.07
2018-01-15T03:02:26.722Z,1.06
2018-01-15T03:03:27.009Z,1.06
2018-01-15T03:04:26.806Z,1.03
2018-01-15T03:05:26.917Z,1.04
2018-01-15T03:06:26.905Z,0.99
2018-01-15T03:07:26.730Z,0.99
2018-01-15T03:08:26.931Z,1
2018-01-15T03:09:26.852Z,1
2018-01-15T03:10:26.566Z,0.99
2018-01-15T03:11:27.062Z,1.02
2018-01-15T03:12:26.922Z,1.04
2018-01-15T03:13:26.895Z,1.07
2018-01-15T03:14:26.863Z,1.08
2018-01-15T03:15:27.112Z,1.07
2018-01-15T03:16:26.641Z,1.07
2018-01-15T03:17:26.881Z,1.08
2018-01-15T03:18:26.811Z,1.07
2018-01-15T03:19:26.874Z,1.05
2018-01-15T03:20:26.912Z,1.04
2018-01-15T03:21:26.876Z,1.03
2018-01-15T03:22:26.711Z,1.05
2018-01-15T03:23:26.795Z,1.07
2018-01-15T03:24:26.672Z,1.06
2018-01-15T03:25:27.152Z,1.04
2018-01-15T03:26:26.954Z,1.04
2018-01-15T03:27:27.144Z,1.05
2018-01-15T03:28:26.844Z,1.07
2018-01-15T03:29:26.856Z,1.02
2018-01-15T03:30:26.625Z,1.03
2018-01-15T03:31:26.912Z,1
2018-01-15T03:32:26.909Z,0.99
2018-01-15T03:33:26.875Z,1.04
2018-01-15T03:34:27.436Z,1.02
2018-01-15T03:35:26.961Z,1.06
2018-01-15T03:36:27.068Z,1.07
2018-01-15T03:37:26.945Z,1.08
2018-01-15T03:38:26.992Z,1.07
2018-01-15T03:39:26.819Z,1.07
2018-01-15T03:40:26.744Z,1.03
2018-01-15T03:41:26.896Z,1.05
2018-01-15T03:42:26.554Z,1.02
2018-01-15T03:43:26.729Z,1.04
2018-01-15T03:44:26.960Z,1.03
2018-01-15T03:45:26.817Z,1.06
2018-01-15T03:46:26.887Z,1.07
2018-01-15T03:47:26.942Z,1.06
2018-01-15T03:48:26.985Z,1.07
2018-01-15T03:49:26.621Z,1.09
2018-01-15T03:50:26.813Z,1.09
2018-01-15T03:51:26.826Z,1.12
2018-01-15T03:52:26.737Z,1.07
2018-01-15T03:53:26.966Z,1.09
2018-01-15T03:54:26.870Z,1.13
2018-01-15T03:55:26.812Z,1.13
2018-01-15T03:56:26.533Z,1.14
2018-01-15T03:57:27.132Z,1.14
2018-01-15T03:58:27.295Z,1.13
2018-01-15T03:59:26.020Z,1.12
2018-01-15T04:00:26.473Z,1.14
2018-01-15T04:01:26.983Z,1.15
2018-01-15T04:02:26.488Z,1.19
2018-01-15T04:03:26.889Z,1.19
2018-01-15T04:04:27.002Z,1.19
2018-01-15T04:05:26.269Z,1.19
2018-01-15T04:06:26.862Z,1.19
2018-01-15T04:07:26.920Z,1.17
2018-01-15T04:08:26.936Z,1.17
2018-01-15T04:09:26.965Z,1.18
2018-01-15T04:10:26.933Z,1.14
2018-01-15T04:11:27.062Z,1.15
2018-01-15T04:12:27.167Z,1.13
2018-01-15T04:13:27.205Z,1.13
2018-01-15T04:14:26.535Z,1.11
2018-01-15T04:15:27.359Z,1.12
2018-01-15T04:16:26.795Z,1.09
2018-01-15T04:17:27.214Z,1.05
2018-01-15T04:18:26.672Z,1.04
2018-01-15T04:19:27.105Z,1.05
2018-01-15T04:20:27.315Z,1.05
2018-01-15T04:21:27.117Z,1.07
2018-01-15T04:22:27.774Z,1.08
2018-01-15T04:23:27.136Z,1.08
2018-01-15T04:24:26.316Z,1.07
2018-01-15T04:25:27.014Z,1.05
2018-01-15T04:26:34.214Z,1.03
2018-01-15T04:27:26.931Z,1.07
2018-01-15T04:28:26.898Z,1.07
2018-01-15T04:29:26.609Z,1.09
2018-01-15T04:30:26.973Z,1.04
2018-01-15T04:31:27.147Z,1
2018-01-15T04:32:26.437Z,0.99
2018-01-15T04:33:27.001Z,0.98
2018-01-15T04:34:27.023Z,0.99
2018-01-15T04:35:27.083Z,1
2018-01-15T04:36:27.518Z,1.03
2018-01-15T04:37:26.528Z,1.03
2018-01-15T04:38:26.906Z,1.07
2018-01-15T04:39:27.538Z,1.07
2018-01-15T04:40:27.138Z,1.06
2018-01-15T04:41:26.866Z,1.08
2018-01-15T04:42:26.984Z,1.07
2018-01-15T04:43:26.082Z,1.06
2018-01-15T04:44:26.049Z,1.06
2018-01-15T04:45:25.935Z,1.08
2018-01-15T04:46:25.976Z,1.07
2018-01-15T04:47:25.924Z,1.08
2018-01-15T04:48:25.681Z,1.1
2018-01-15T04:49:26.105Z,1.07
2018-01-15T04:50:25.902Z,1.08
2018-01-15T04:51:25.954Z,1.05
2018-01-15T04:52:25.731Z,1.07
2018-01-15T04:53:26.118Z,1.03
2018-01-15T04:54:25.961Z,1.05
2018-01-15T04:55:26.740Z,1.03
2018-01-15T04:56:25.924Z,1.03
2018-01-15T04:57:26.053Z,1.02
2018-01-15T04:58:25.636Z,0.99
2018-01-15T04:59:26.551Z,0.97
2018-01-15T05:00:26.175Z,0.96
2018-01-15T05:01:26.090Z,1
2018-01-15T05:02:26.266Z,0.97
2018-01-15T05:03:25.892Z,0.99
2018-01-15T05:04:26.097Z,1
2018-01-15T05:05:25.788Z,1
2018-01-15T05:06:26.023Z,0.99
2018-01-15T05:07:26.309Z,1
2018-01-15T05:08:25.858Z,1.01
2018-01-15T05:09:25.888Z,1.03
2018-01-15T05:10:26.115Z,1.02
2018-01-15T05:11:25.840Z,1.02
2018-01-15T05:12:25.946Z,1.02
2018-01-15T05:13:26.105Z,1.02
2018-01-15T05:14:25.778Z,1.02
2018-01-15T05:15:26.055Z,1.01
2018-01-15T05:16:25.856Z,1
2018-01-15T05:17:26.081Z,1.02
2018-01-15T05:18:26.287Z,1.01
2018-01-15T05:19:25.906Z,1.02
2018-01-15T05:20:26.476Z,1.06
2018-01-15T05:21:25.902Z,1.04
2018-01-15T05:22:26.085Z,1.02
2018-01-15T05:23:25.887Z,1.01
2018-01-15T05:24:25.922Z,1.04
2018-01-15T05:25:26.059Z,1.01
2018-01-15T05:26:26.143Z,0.98
2018-01-15T05:27:26.066Z,0.96
2018-01-15T05:28:25.676Z,0.98
2018-01-15T05:29:27.059Z,0.96
2018-01-15T05:30:25.627Z,0.96
2018-01-15T05:31:25.783Z,0.95
2018-01-15T05:32:25.646Z,0.93
2018-01-15T05:33:26.140Z,0.97
2018-01-15T05:34:25.972Z,0.93
2018-01-15T05:35:26.627Z,0.95
2018-01-15T05:36:25.565Z,0.97
2018-01-15T05:37:25.996Z,0.95
2018-01-15T05:38:25.710Z,0.9
2018-01-15T05:39:26.360Z,0.89
2018-01-15T05:40:29.543Z,0.89
2018-01-15T05:41:25.901Z,0.89
2018-01-15T05:42:25.583Z,0.89
2018-01-15T05:43:26.706Z,0.87
2018-01-15T05:44:26.163Z,0.89
2018-01-15T05:45:26.141Z,0.88
2018-01-15T05:46:26.253Z,0.88
2018-01-15T05:47:25.753Z,0.86
2018-01-15T05:48:25.799Z,0.85
2018-01-15T05:49:26.134Z,0.86
2018-01-15T05:50:25.702Z,0.82
2018-01-15T05:51:26.191Z,0.83
2018-01-15T05:52:25.678Z,0.83
2018-01-15T05:53:25.685Z,0.84
2018-01-15T05:54:25.687Z,0.84
2018-01-15T05:55:25.967Z,0.84
2018-01-15T05:56:27.360Z,0.83
2018-01-15T05:57:25.614Z,0.86
2018-01-15T05:58:26.513Z,0.83
2018-01-15T05:59:25.703Z,0.85
2018-01-15T06:00:26.076Z,0.83
2018-01-15T06:01:26.110Z,0.83
2018-01-15T06:02:26.022Z,0.8
2018-01-15T06:03:26.040Z,0.79
2018-01-15T06:04:26.089Z,0.78
2018-01-15T06:05:25.591Z,0.81
2018-01-15T06:06:26.024Z,0.82
2018-01-15T06:07:26.253Z,0.78
2018-01-15T06:08:26.328Z,0.77
2018-01-15T06:09:26.164Z,0.76
2018-01-15T06:10:26.227Z,0.8
2018-01-15T06:11:26.327Z,0.78
2018-01-15T06:12:25.927Z,0.79
2018-01-15T06:13:26.853Z,0.75
2018-01-15T06:14:25.185Z,0.75
2018-01-15T06:15:25.126Z,0.71
2018-01-15T06:16:25.039Z,0.71
2018-01-15T06:17:25.193Z,0.72
2018-01-15T06:18:25.177Z,0.72
2018-01-15T06:19:25.263Z,0.7
2018-01-15T06:20:25.028Z,0.7
2018-01-15T06:21:24.945Z,0.69
2018-01-15T06:22:25.077Z,0.71
2018-01-15T06:23:25.069Z,0.68
2018-01-15T06:24:25.038Z,0.67
2018-01-15T06:25:25.112Z,0.64
2018-01-15T06:26:25.121Z,0.66
2018-01-15T06:27:25.106Z,0.64
2018-01-15T06:28:25.147Z,0.65
2018-01-15T06:29:25.073Z,0.65
2018-01-15T06:30:24.991Z,0.66
2018-01-15T06:31:25.152Z,0.65
2018-01-15T06:32:25.019Z,0.63
2018-01-15T06:33:25.344Z,0.63
2018-01-15T06:34:25.048Z,0.6
2018-01-15T06:35:25.042Z,0.62
2018-01-15T06:36:24.865Z,0.58
2018-01-15T06:37:25.591Z,0.57
2018-01-15T06:38:25.036Z,0.56
2018-01-15T06:39:25.182Z,0.55
2018-01-15T06:40:25.152Z,0.52
2018-01-15T06:41:25.148Z,0.53
2018-01-15T06:42:25.168Z,0.52
2018-01-15T06:43:25.440Z,0.57
2018-01-15T06:44:24.998Z,0.57
2018-01-15T06:45:25.212Z,0.56
2018-01-15T06:46:25.258Z,0.56
2018-01-15T06:47:25.057Z,0.58
2018-01-15T06:48:25.152Z,0.62
2018-01-15T06:49:25.309Z,0.63
2018-01-15T06:50:25.223Z,0.63
2018-01-15T06:51:25.111Z,0.62
2018-01-15T06:52:25.287Z,0.64
2018-01-15T06:53:25.279Z,0.65
2018-01-15T06:54:25.087Z,0.68
2018-01-15T06:55:25.268Z,0.68
2018-01-15T06:56:25.199Z,0.69
2018-01-15T06:57:25.215Z,0.71
2018-01-15T06:58:25.118Z,0.74
2018-01-15T06:59:25.308Z,0.73
2018-01-15T07:00:25.263Z,0.76
2018-01-15T07:01:25.336Z,0.78
2018-01-15T07:02:25.166Z,0.81
2018-01-15T07:03:25.260Z,0.81
2018-01-15T07:04:25.005Z,0.81
2018-01-15T07:05:25.567Z,0.81
2018-01-15T07:06:25.249Z,0.81
2018-01-15T07:07:25.789Z,0.8
2018-01-15T07:08:25.237Z,0.81
2018-01-15T07:09:25.118Z,0.85
2018-01-15T07:10:25.229Z,0.88
2018-01-15T07:11:25.428Z,0.88
2018-01-15T07:12:25.314Z,0.89
2018-01-15T07:13:25.405Z,0.92
2018-01-15T07:14:25.350Z,0.89
2018-01-15T07:15:25.248Z,0.89
2018-01-15T07:16:25.364Z,0.88
2018-01-15T07:17:25.267Z,0.89
2018-01-15T07:18:25.234Z,0.89
2018-01-15T07:19:25.265Z,0.9
2018-01-15T07:20:25.998Z,0.94
2018-01-15T07:21:25.690Z,0.94
2018-01-15T07:22:25.218Z,0.95
2018-01-15T07:23:25.231Z,0.94
2018-01-15T07:24:25.216Z,0.94
2018-01-15T07:25:25.364Z,0.94
2018-01-15T07:26:25.446Z,0.95
2018-01-15T07:27:25.487Z,0.95
2018-01-15T07:28:25.317Z,0.95
2018-01-15T07:29:25.267Z,0.96
2018-01-15T07:30:25.342Z,0.95
2018-01-15T07:31:25.257Z,0.96
2018-01-15T07:32:25.580Z,0.98
2018-01-15T07:33:25.583Z,0.96
2018-01-15T07:34:25.269Z,0.95
2018-01-15T07:35:25.264Z,0.96
2018-01-15T07:36:25.796Z,0.99
2018-01-15T07:37:25.312Z,1.02
2018-01-15T07:38:25.835Z,1.06
2018-01-15T07:39:25.122Z,1.07
2018-01-15T07:40:25.282Z,1.1
2018-01-15T07:41:25.530Z,1.12
2018-01-15T07:42:25.424Z,1.12
2018-01-15T07:43:25.525Z,1.13
2018-01-15T07:44:25.244Z,1.14
2018-01-15T07:45:25.230Z,1.13
2018-01-15T07:46:25.273Z,1.18
2018-01-15T07:47:25.429Z,1.19
2018-01-15T07:48:25.558Z,1.24
2018-01-15T07:49:26.633Z,1.25
2018-01-15T07:50:25.178Z,1.24
2018-01-15T07:51:26.033Z,1.25
2018-01-15T07:52:25.227Z,1.25
2018-01-15T07:53:25.390Z,1.32
2018-01-15T07:54:25.547Z,1.32
2018-01-15T07:55:25.198Z,1.31
2018-01-15T07:56:25.449Z,1.31
2018-01-15T07:57:25.397Z,1.31
2018-01-15T07:58:25.263Z,1.32
2018-01-15T07:59:25.476Z,1.36
2018-01-15T08:00:25.460Z,1.35
2018-01-15T08:01:25.371Z,1.36
2018-01-15T08:02:25.467Z,1.38
2018-01-15T08:03:25.274Z,1.39
2018-01-15T08:04:25.259Z,1.37
2018-01-15T08:05:25.422Z,1.42
2018-01-15T08:06:25.440Z,1.43
2018-01-15T08:07:25.545Z,1.44
2018-01-15T08:08:25.519Z,1.45
2018-01-15T08:09:25.349Z,1.45
2018-01-15T08:10:25.570Z,1.46
2018-01-15T08:11:25.809Z,1.49
2018-01-15T08:12:25.214Z,1.49
2018-01-15T08:13:25.598Z,1.5
2018-01-15T08:14:25.562Z,1.52
2018-01-15T08:15:25.489Z,1.55
2018-01-15T08:16:25.220Z,1.59
2018-01-15T08:17:25.476Z,1.58
2018-01-15T08:18:25.526Z,1.61
2018-01-15T08:19:25.565Z,1.62
2018-01-15T08:20:25.658Z,1.62
2018-01-15T08:21:25.491Z,1.63
2018-01-15T08:22:25.458Z,1.67
2018-01-15T08:23:25.509Z,1.67
2018-01-15T08:24:25.438Z,1.68
2018-01-15T08:25:25.375Z,1.69
2018-01-15T08:26:25.450Z,1.72
2018-01-15T08:27:25.448Z,1.73
2018-01-15T08:28:25.405Z,1.7
2018-01-15T08:29:25.413Z,1.73
2018-01-15T08:30:25.644Z,1.74
2018-01-15T08:31:25.324Z,1.74
2018-01-15T08:32:25.296Z,1.72
2018-01-15T08:33:25.439Z,1.73
2018-01-15T08:34:25.600Z,1.72
2018-01-15T08:35:25.619Z,1.74
2018-01-15T08:36:25.328Z,1.75
2018-01-15T08:37:25.552Z,1.75
2018-01-15T08:38:25.609Z,1.75
2018-01-15T08:39:25.502Z,1.78
2018-01-15T08:40:26.048Z,1.75
2018-01-15T08:41:25.612Z,1.76
2018-01-15T08:42:25.486Z,1.75
2018-01-15T08:43:25.681Z,1.79
2018-01-15T08:44:25.843Z,1.77
2018-01-15T08:45:25.236Z,1.78
2018-01-15T08:46:25.368Z,1.8
2018-01-15T08:47:25.684Z,1.77
2018-01-15T08:48:25.566Z,1.8
2018-01-15T08:49:25.474Z,1.82
2018-01-15T08:50:25.439Z,1.83
2018-01-15T08:51:25.460Z,1.82
2018-01-15T08:52:25.918Z,1.84
2018-01-15T08:53:25.620Z,1.83
2018-01-15T08:54:25.477Z,1.86
2018-01-15T08:55:25.660Z,1.86
2018-01-15T08:56:25.485Z,1.86
2018-01-15T08:57:25.307Z,1.86
2018-01-15T08:58:25.610Z,1.87
2018-01-15T08:59:25.705Z,1.88
2018-01-15T09:00:25.545Z,1.88
2018-01-15T09:01:25.526Z,1.89
2018-01-15T09:02:25.499Z,1.88
2018-01-15T09:03:25.605Z,1.9
2018-01-15T09:04:25.395Z,1.9
2018-01-15T09:05:25.538Z,1.92
2018-01-15T09:06:25.468Z,1.94
2018-01-15T09:07:25.624Z,1.94
2018-01-15T09:08:25.580Z,1.92
2018-01-15T09:09:25.572Z,1.95
2018-01-15T09:10:25.471Z,1.94
2018-01-15T09:11:25.379Z,1.97
2018-01-15T09:12:25.566Z,1.96
2018-01-15T09:13:26.480Z,1.99
2018-01-15T09:14:25.438Z,2.01
2018-01-15T09:15:25.662Z,2.03
2018-01-15T09:16:25.711Z,2.01
2018-01-15T09:17:25.824Z,2.01
2018-01-15T09:18:25.618Z,2.04
2018-01-15T09:19:25.554Z,2.06
2018-01-15T09:20:25.476Z,2.07
2018-01-15T09:21:25.740Z,2.07
2018-01-15T09:22:25.720Z,2.07
2018-01-15T09:23:25.732Z,2.08
2018-01-15T09:24:25.711Z,2.1
2018-01-15T09:25:25.652Z,2.09
2018-01-15T09:26:25.682Z,2.07
2018-01-15T09:27:25.790Z,2.08
2018-01-15T09:28:25.755Z,2.11
2018-01-15T09:29:25.619Z,2.11
2018-01-15T09:30:25.536Z,2.12
2018-01-15T09:31:25.542Z,2.13
2018-01-15T09:32:25.664Z,2.17
2018-01-15T09:33:25.509Z,2.19
2018-01-15T09:34:25.502Z,2.19
2018-01-15T09:35:25.471Z,2.23
2018-01-15T09:36:25.540Z,2.24
2018-01-15T09:37:26.450Z,2.23
2018-01-15T09:38:25.593Z,2.21
2018-01-15T09:39:25.834Z,2.22
2018-01-15T09:40:25.738Z,2.23
2018-01-15T09:41:25.474Z,2.22
2018-01-15T09:42:25.502Z,2.23
2018-01-15T09:43:25.579Z,2.23
2018-01-15T09:44:25.722Z,2.22
2018-01-15T09:45:25.616Z,2.25
2018-01-15T09:46:25.683Z,2.25
2018-01-15T09:47:25.817Z,2.27
2018-01-15T09:48:25.857Z,2.27
2018-01-15T09:49:25.836Z,2.27
2018-01-15T09:50:25.759Z,2.25
2018-01-15T09:51:25.717Z,2.24
2018-01-15T09:52:25.700Z,2.25
2018-01-15T09:53:25.782Z,2.26
2018-01-15T09:54:25.772Z,2.27
2018-01-15T09:55:25.910Z,2.28
2018-01-15T09:56:25.586Z,2.28
2018-01-15T09:57:25.821Z,2.29
2018-01-15T09:58:25.664Z,2.29
2018-01-15T09:59:25.797Z,2.28
2018-01-15T10:00:25.816Z,2.31
2018-01-15T10:01:25.787Z,2.27
2018-01-15T10:02:25.755Z,2.27
2018-01-15T10:03:25.748Z,2.27
2018-01-15T10:04:25.739Z,2.29
2018-01-15T10:05:26.070Z,2.31
2018-01-15T10:06:25.857Z,2.3
2018-01-15T10:07:26.377Z,2.32
2018-01-15T10:08:25.785Z,2.32
2018-01-15T10:09:25.864Z,2.33
2018-01-15T10:10:25.798Z,2.33
2018-01-15T10:11:26.397Z,2.35
2018-01-15T10:12:26.176Z,2.33
2018-01-15T10:13:26.433Z,2.32
2018-01-15T10:14:25.216Z,2.33
2018-01-15T10:15:25.245Z,2.32
2018-01-15T10:16:25.058Z,2.35
2018-01-15T10:17:25.370Z,2.32
2018-01-15T10:18:25.238Z,2.3
2018-01-15T10:19:25.307Z,2.31
2018-01-15T10:20:25.327Z,2.31
2018-01-15T10:21:25.105Z,2.31
2018-01-15T10:22:25.112Z,2.34
2018-01-15T10:23:25.068Z,2.32
2018-01-15T10:24:25.059Z,2.31
2018-01-15T10:25:25.233Z,2.31
2018-01-15T10:26:25.331Z,2.32
2018-01-15T10:27:25.040Z,2.32
2018-01-15T10:28:25.141Z,2.32
2018-01-15T10:29:25.275Z,2.31
2018-01-15T10:30:24.981Z,2.31
2018-01-15T10:31:25.253Z,2.3
2018-01-15T10:32:24.968Z,2.3
2018-01-15T10:33:25.288Z,2.31
2018-01-15T10:34:24.861Z,2.31
2018-01-15T10:35:24.867Z,2.32
2018-01-15T10:36:25.130Z,2.32
2018-01-15T10:37:24.997Z,2.32
2018-01-15T10:38:25.109Z,2.33
2018-01-15T10:39:25.034Z,2.33
2018-01-15T10:40:25.110Z,2.32
2018-01-15T10:41:25.062Z,2.33
2018-01-15T10:42:25.281Z,2.34
2018-01-15T10:43:25.141Z,2.38
2018-01-15T10:44:25.260Z,2.37
2018-01-15T10:45:25.292Z,2.37
2018-01-15T10:46:25.265Z,2.38
2018-01-15T10:47:25.179Z,2.38
2018-01-15T10:48:25.167Z,2.39
2018-01-15T10:49:25.359Z,2.42
2018-01-15T10:50:25.280Z,2.42
2018-01-15T10:51:25.286Z,2.44
2018-01-15T10:52:25.291Z,2.45
2018-01-15T10:53:25.347Z,2.46
2018-01-15T10:54:25.393Z,2.46
2018-01-15T10:55:25.193Z,2.47
2018-01-15T10:56:25.205Z,2.48
2018-01-15T10:57:25.121Z,2.5
2018-01-15T10:58:25.271Z,2.49
2018-01-15T10:59:25.259Z,2.5
2018-01-15T11:00:24.967Z,2.5
2018-01-15T11:01:25.355Z,2.51
2018-01-15T11:02:25.261Z,2.52
2018-01-15T11:03:25.216Z,2.53
2018-01-15T11:04:25.267Z,2.54
2018-01-15T11:05:26.098Z,2.57
2018-01-15T11:06:25.491Z,2.57
2018-01-15T11:07:25.352Z,2.6
2018-01-15T11:08:25.324Z,2.58
2018-01-15T11:09:25.280Z,2.6
2018-01-15T11:10:25.132Z,2.58
2018-01-15T11:11:25.344Z,2.58
2018-01-15T11:12:25.373Z,2.6
2018-01-15T11:13:25.493Z,2.62
2018-01-15T11:14:25.533Z,2.64
2018-01-15T11:15:25.236Z,2.67
2018-01-15T11:16:25.071Z,2.69
2018-01-15T11:17:25.181Z,2.7
2018-01-15T11:18:25.163Z,2.69
2018-01-15T11:19:25.363Z,2.72
2018-01-15T11:20:25.231Z,2.71
2018-01-15T11:21:25.329Z,2.71
2018-01-15T11:22:25.397Z,2.75
2018-01-15T11:23:25.083Z,2.78
2018-01-15T11:24:25.227Z,2.8
2018-01-15T11:25:25.393Z,2.84
2018-01-15T11:26:25.229Z,2.86
2018-01-15T11:27:25.228Z,2.86
2018-01-15T11:28:25.362Z,2.88
2018-01-15T11:29:25.223Z,2.92
2018-01-15T11:30:25.513Z,2.94
2018-01-15T11:31:25.224Z,2.95
2018-01-15T11:32:25.520Z,2.99
2018-01-15T11:33:25.371Z,3.01
2018-01-15T11:34:25.557Z,3.02
2018-01-15T11:35:25.407Z,3.06
2018-01-15T11:36:25.477Z,3.06
2018-01-15T11:37:25.319Z,3.07
2018-01-15T11:38:25.341Z,3.08
2018-01-15T11:39:25.340Z,3.09
2018-01-15T11:40:25.324Z,3.12
2018-01-15T11:41:25.429Z,3.15
2018-01-15T11:42:25.208Z,3.15
2018-01-15T11:43:25.238Z,3.16
2018-01-15T11:44:25.559Z,3.14
2018-01-15T11:45:25.294Z,3.17
2018-01-15T11:46:25.737Z,3.17
2018-01-15T11:47:25.281Z,3.17
2018-01-15T11:48:25.423Z,3.18
2018-01-15T11:49:25.384Z,3.18
2018-01-15T11:50:25.394Z,3.17
2018-01-15T11:51:25.578Z,3.18
2018-01-15T11:52:25.380Z,3.18
2018-01-15T11:53:25.304Z,3.19
2018-01-15T11:54:25.455Z,3.2
2018-01-15T11:55:25.111Z,3.2
2018-01-15T11:56:25.323Z,3.19
2018-01-15T11:57:25.443Z,3.19
2018-01-15T11:58:25.281Z,3.19
2018-01-15T11:59:25.295Z,3.2
2018-01-15T12:00:25.379Z,3.23
2018-01-15T12:01:25.375Z,3.24
2018-01-15T12:02:25.382Z,3.24
2018-01-15T12:03:25.460Z,3.25
2018-01-15T12:04:25.476Z,3.24
2018-01-15T12:05:25.351Z,3.25
2018-01-15T12:06:25.134Z,3.23
2018-01-15T12:07:25.418Z,3.25
2018-01-15T12:08:25.477Z,3.26
2018-01-15T12:09:25.464Z,3.26
2018-01-15T12:10:25.260Z,3.27
2018-01-15T12:11:25.722Z,3.3
2018-01-15T12:12:25.094Z,3.3
2018-01-15T12:13:25.545Z,3.3
2018-01-15T12:14:25.453Z,3.3
2018-01-15T12:15:25.428Z,3.3
2018-01-15T12:16:25.275Z,3.31
2018-01-15T12:17:25.402Z,3.32
2018-01-15T12:18:25.258Z,3.32
2018-01-15T12:19:25.347Z,3.33
2018-01-15T12:20:25.408Z,3.36
2018-01-15T12:21:25.511Z,3.38
2018-01-15T12:22:25.384Z,3.39
2018-01-15T12:23:25.380Z,3.4
2018-01-15T12:24:25.505Z,3.43
2018-01-15T12:25:25.396Z,3.43
2018-01-15T12:26:25.444Z,3.43
2018-01-15T12:27:25.414Z,3.44
2018-01-15T12:28:25.406Z,3.46
2018-01-15T12:29:25.833Z,3.45
2018-01-15T12:30:25.439Z,3.46
2018-01-15T12:31:25.503Z,3.46
2018-01-15T12:32:25.506Z,3.46
2018-01-15T12:33:25.548Z,3.49
2018-01-15T12:34:25.598Z,3.5
2018-01-15T12:35:25.359Z,3.5
2018-01-15T12:36:25.497Z,3.5
2018-01-15T12:37:25.165Z,3.52
2018-01-15T12:38:25.354Z,3.51
2018-01-15T12:39:25.699Z,3.52
2018-01-15T12:40:25.397Z,3.52
2018-01-15T12:41:25.622Z,3.51
2018-01-15T12:42:25.418Z,3.52
2018-01-15T12:43:25.124Z,3.52
2018-01-15T12:44:25.680Z,3.57
2018-01-15T12:45:25.658Z,3.57
2018-01-15T12:46:25.381Z,3.61
2018-01-15T12:47:25.398Z,3.62
2018-01-15T12:48:25.350Z,3.65
2018-01-15T12:49:25.358Z,3.63
2018-01-15T12:50:25.586Z,3.64
2018-01-15T12:51:25.471Z,3.64
2018-01-15T12:52:25.387Z,3.68
2018-01-15T12:53:25.504Z,3.69
2018-01-15T12:54:25.349Z,3.7
2018-01-15T12:55:25.564Z,3.71
2018-01-15T12:56:25.567Z,3.7
2018-01-15T12:57:25.502Z,3.72
2018-01-15T12:58:25.487Z,3.69
2018-01-15T12:59:25.519Z,3.7
2018-01-15T13:00:25.462Z,3.7
2018-01-15T13:01:25.695Z,3.7
2018-01-15T13:02:25.690Z,3.71
2018-01-15T13:03:25.510Z,3.74
2018-01-15T13:04:25.328Z,3.76
2018-01-15T13:05:25.598Z,3.77
2018-01-15T13:06:25.603Z,3.76
2018-01-15T13:07:25.338Z,3.77
2018-01-15T13:08:25.684Z,3.76
2018-01-15T13:09:25.660Z,3.77
2018-01-15T13:10:30.482Z,3.77
2018-01-15T13:11:25.833Z,3.77
2018-01-15T13:12:25.463Z,3.8
2018-01-15T13:13:25.597Z,3.78
2018-01-15T13:14:25.726Z,3.77
2018-01-15T13:15:25.551Z,3.77
2018-01-15T13:16:25.688Z,3.77
2018-01-15T13:17:25.541Z,3.77
2018-01-15T13:18:25.587Z,3.78
2018-01-15T13:19:25.686Z,3.75
2018-01-15T13:20:25.708Z,3.77
2018-01-15T13:21:25.473Z,3.77
2018-01-15T13:22:25.418Z,3.77
2018-01-15T13:23:26.315Z,3.77